Time;durP1;ratioP1;P1;durP2;ratioP2;P2;SDS_P1;SDS_P2;PMS_P1;PMS_P2;Temp;Humidity;BMP_temperature;BMP_pressure;BME280_temperature;BME280_humidity;BME280_pressure;Samples;Min_cycle;Max_cycle;Signal;HPM_P1;HPM_P2
2024/04/19 00:01:18;;;;;;;3.80;2.38;;;;;;;;;;5374164;26;20474;-54
2024/04/19 00:03:44;;;;;;;4.43;2.60;;;;;;;;;;5376152;26;20008;-55
2024/04/19 00:06:10;;;;;;;4.47;2.80;;;;;;;;;;5391509;26;20011;-57
2024/04/19 00:08:36;;;;;;;6.25;2.95;;;;;;;;;;5389338;26;20019;-53
2024/04/19 00:11:02;;;;;;;3.90;2.70;;;;;;;;;;5373617;26;20047;-55
2024/04/19 00:13:29;;;;;;;3.88;2.80;;;;;;;;;;5375518;26;20012;-55
2024/04/19 00:15:57;;;;;;;5.10;3.00;;;;;;;;;;5393031;26;20008;-57
2024/04/19 00:18:24;;;;;;;6.25;3.15;;;;;;;;;;5372055;26;20068;-55
2024/04/19 00:20:50;;;;;;;3.20;2.75;;;;;;;;;;5372860;26;20015;-56
2024/04/19 00:23:15;;;;;;;3.47;2.65;;;;;;;;;;5371552;26;20044;-57
2024/04/19 00:25:41;;;;;;;3.92;3.17;;;;;;;;;;5374202;26;20367;-59
2024/04/19 00:28:07;;;;;;;4.35;3.20;;;;;;;;;;5374936;26;20008;-53
2024/04/19 00:30:33;;;;;;;4.55;2.85;;;;;;;;;;5374040;26;20053;-56
2024/04/19 00:32:59;;;;;;;4.32;3.13;;;;;;;;;;5373816;26;20004;-52
2024/04/19 00:35:24;;;;;;;5.18;3.30;;;;;;;;;;5375921;26;20035;-55
2024/04/19 00:37:50;;;;;;;4.70;3.13;;;;;;;;;;5344871;26;20448;-56
2024/04/19 00:40:32;;;;;;;4.85;3.17;;;;;;;;;;5382271;26;20004;-57
2024/04/19 00:42:58;;;;;;;4.03;2.95;;;;;;;;;;5410993;26;20018;-57
2024/04/19 00:45:30;;;;;;;5.03;2.90;;;;;;;;;;5406941;26;20577;-56
2024/04/19 00:47:56;;;;;;;4.72;3.05;;;;;;;;;;5371311;26;20340;-57
2024/04/19 00:50:24;;;;;;;5.43;3.17;;;;;;;;;;5336524;26;20406;-58
2024/04/19 00:52:49;;;;;;;4.63;3.13;;;;;;;;;;5374978;26;20022;-57
2024/04/19 00:55:15;;;;;;;3.75;2.90;;;;;;;;;;5343193;26;20371;-56
2024/04/19 00:57:42;;;;;;;4.97;2.85;;;;;;;;;;5375359;26;20015;-55
2024/04/19 01:00:08;;;;;;;4.65;2.80;;;;;;;;;;5344797;26;20015;-55
2024/04/19 01:02:35;;;;;;;4.05;2.75;;;;;;;;;;5373470;26;20383;-58
2024/04/19 01:05:17;;;;;;;4.60;2.63;;;;;;;;;;5374817;26;20468;-54
2024/04/19 01:07:43;;;;;;;4.45;2.90;;;;;;;;;;5375166;26;20040;-56
2024/04/19 01:10:09;;;;;;;6.88;2.60;;;;;;;;;;5344117;26;20016;-57
2024/04/19 01:12:35;;;;;;;3.83;2.50;;;;;;;;;;5374925;26;20064;-57
2024/04/19 01:15:00;;;;;;;6.00;2.92;;;;;;;;;;5376765;26;20490;-57
2024/04/19 01:17:29;;;;;;;3.85;2.50;;;;;;;;;;5407845;26;20003;-54
2024/04/19 01:19:55;;;;;;;4.35;2.10;;;;;;;;;;5401908;26;20019;-56
2024/04/19 01:22:36;;;;;;;2.85;1.75;;;;;;;;;;5389932;26;20460;-57
2024/04/19 01:25:08;;;;;;;4.32;2.25;;;;;;;;;;5388958;26;20050;-58
2024/04/19 01:27:34;;;;;;;3.22;1.83;;;;;;;;;;5388657;26;20036;-58
2024/04/19 01:29:59;;;;;;;2.58;1.90;;;;;;;;;;5375191;26;20015;-56
2024/04/19 01:32:25;;;;;;;4.28;1.75;;;;;;;;;;5374728;26;20491;-57
2024/04/19 01:34:51;;;;;;;2.33;1.58;;;;;;;;;;5374864;26;20032;-56
2024/04/19 01:37:17;;;;;;;3.92;1.80;;;;;;;;;;5383587;26;20014;-55
2024/04/19 01:39:46;;;;;;;2.63;1.88;;;;;;;;;;5373304;26;19997;-58
2024/04/19 01:42:12;;;;;;;1.77;1.38;;;;;;;;;;5400734;26;20004;-58
2024/04/19 01:44:38;;;;;;;1.95;1.50;;;;;;;;;;5380845;26;20019;-56
2024/04/19 01:47:04;;;;;;;1.80;1.40;;;;;;;;;;5400761;26;20051;-53
2024/04/19 01:49:33;;;;;;;3.17;1.23;;;;;;;;;;5380239;26;20023;-56
2024/04/19 01:52:02;;;;;;;3.03;1.58;;;;;;;;;;5343852;26;20777;-56
2024/04/19 01:54:27;;;;;;;1.40;1.30;;;;;;;;;;5401321;26;20106;-56
2024/04/19 01:56:58;;;;;;;2.10;1.10;;;;;;;;;;5364727;26;20468;-56
2024/04/19 01:59:27;;;;;;;1.60;1.30;;;;;;;;;;5400529;26;20012;-58
2024/04/19 02:01:53;;;;;;;1.80;1.40;;;;;;;;;;5383513;26;20028;-58
2024/04/19 02:04:18;;;;;;;3.35;1.52;;;;;;;;;;5374119;26;20004;-57
2024/04/19 02:06:44;;;;;;;1.75;1.30;;;;;;;;;;5373953;26;20503;-54
2024/04/19 02:09:32;;;;;;;1.90;1.50;;;;;;;;;;5385637;26;20007;-55
2024/04/19 02:11:57;;;;;;;1.77;1.67;;;;;;;;;;5409460;26;20004;-58
2024/04/19 02:14:23;;;;;;;3.47;1.67;;;;;;;;;;5409677;26;20018;-58
2024/04/19 02:16:49;;;;;;;4.10;2.05;;;;;;;;;;5378689;26;20043;-58
2024/04/19 02:19:39;;;;;;;1.83;1.60;;;;;;;;;;5369301;26;19997;-57
2024/04/19 02:22:05;;;;;;;1.95;1.17;;;;;;;;;;5369344;26;20078;-58
2024/04/19 02:24:32;;;;;;;1.75;1.40;;;;;;;;;;5371046;26;20001;-56
2024/04/19 02:26:59;;;;;;;2.15;1.45;;;;;;;;;;5390397;26;20366;-55
2024/04/19 02:32:09;;;;;;;1.65;1.13;;;;;;;;;;5373697;26;20004;-56
2024/04/19 02:34:36;;;;;;;1.98;1.30;;;;;;;;;;5372218;26;20032;-55
2024/04/19 02:37:02;;;;;;;1.95;1.27;;;;;;;;;;5372394;26;20069;-54
2024/04/19 02:39:28;;;;;;;2.00;1.40;;;;;;;;;;5372206;26;20015;-55
2024/04/19 02:41:54;;;;;;;1.77;1.10;;;;;;;;;;5373404;26;20402;-57
2024/04/19 02:44:39;;;;;;;1.48;1.10;;;;;;;;;;5373344;26;20007;-55
2024/04/19 02:47:05;;;;;;;1.58;1.20;;;;;;;;;;5373460;26;20001;-53
2024/04/19 02:49:31;;;;;;;1.30;1.10;;;;;;;;;;5373951;26;20008;-55
2024/04/19 02:51:57;;;;;;;1.73;1.20;;;;;;;;;;5371881;26;20012;-54
2024/04/19 02:54:23;;;;;;;1.40;1.10;;;;;;;;;;5400037;26;20376;-50
2024/04/19 02:56:49;;;;;;;1.50;1.20;;;;;;;;;;5371835;26;20055;-57
2024/04/19 02:59:14;;;;;;;1.77;1.20;;;;;;;;;;5373374;26;20008;-55
2024/04/19 03:01:41;;;;;;;2.53;1.25;;;;;;;;;;5373292;26;20046;-53
2024/04/19 03:04:07;;;;;;;1.48;1.27;;;;;;;;;;5341740;26;20040;-57
2024/04/19 03:06:33;;;;;;;2.08;1.20;;;;;;;;;;5373358;26;20004;-56
2024/04/19 03:09:00;;;;;;;1.67;1.20;;;;;;;;;;5371193;26;20101;-57
2024/04/19 03:11:47;;;;;;;1.80;1.40;;;;;;;;;;5376541;26;20016;-56
2024/04/19 03:14:12;;;;;;;1.75;1.27;;;;;;;;;;5376616;26;20967;-57
2024/04/19 03:16:38;;;;;;;1.92;1.40;;;;;;;;;;5376598;26;20476;-59
2024/04/19 03:19:04;;;;;;;1.67;1.40;;;;;;;;;;5377284;26;20004;-53
2024/04/19 03:21:30;;;;;;;2.80;1.65;;;;;;;;;;5375558;26;20097;-54
2024/04/19 03:23:56;;;;;;;1.90;1.63;;;;;;;;;;5374082;26;20024;-55
2024/04/19 03:26:23;;;;;;;2.40;1.83;;;;;;;;;;5375975;26;20012;-56
2024/04/19 03:28:50;;;;;;;1.60;1.50;;;;;;;;;;5374737;26;20008;-53
2024/04/19 03:31:15;;;;;;;2.03;1.70;;;;;;;;;;5374860;26;20008;-54
2024/04/19 03:33:41;;;;;;;2.00;1.80;;;;;;;;;;5374583;26;20402;-53
2024/04/19 03:36:07;;;;;;;5.20;2.28;;;;;;;;;;5354581;26;20422;-57
2024/04/19 03:38:32;;;;;;;3.63;1.90;;;;;;;;;;5375047;26;20020;-55
2024/04/19 03:40:58;;;;;;;4.15;2.25;;;;;;;;;;5379052;26;20458;-57
2024/04/19 03:43:24;;;;;;;3.45;2.13;;;;;;;;;;5374301;26;20105;-59
2024/04/19 03:45:50;;;;;;;2.38;2.13;;;;;;;;;;5376083;26;20289;-56
2024/04/19 03:48:16;;;;;;;3.30;2.53;;;;;;;;;;5412713;26;20015;-54
2024/04/19 03:50:46;;;;;;;6.10;2.55;;;;;;;;;;5406212;26;20004;-59
2024/04/19 03:53:12;;;;;;;3.60;2.42;;;;;;;;;;5374428;26;20011;-54
2024/04/19 03:55:37;;;;;;;2.90;2.38;;;;;;;;;;5376398;26;20372;-58
2024/04/19 03:58:03;;;;;;;3.83;2.53;;;;;;;;;;5376062;26;20013;-54
2024/04/19 04:00:28;;;;;;;4.05;2.70;;;;;;;;;;5370465;26;20028;-56
2024/04/19 04:02:54;;;;;;;2.88;2.40;;;;;;;;;;5316240;26;20443;-56
2024/04/19 04:05:21;;;;;;;3.30;2.08;;;;;;;;;;5396506;26;20044;-52
2024/04/19 04:07:47;;;;;;;2.35;2.08;;;;;;;;;;5384583;26;20028;-57
2024/04/19 04:10:12;;;;;;;2.80;2.22;;;;;;;;;;5374210;26;20090;-57
2024/04/19 04:12:38;;;;;;;3.20;2.33;;;;;;;;;;5375511;26;20008;-57
2024/04/19 04:15:04;;;;;;;3.75;2.10;;;;;;;;;;5373692;26;20119;-57
2024/04/19 04:17:32;;;;;;;2.40;1.80;;;;;;;;;;5373396;26;20032;-58
2024/04/19 04:19:58;;;;;;;3.17;2.05;;;;;;;;;;5375175;26;20008;-55
2024/04/19 04:22:24;;;;;;;3.15;2.05;;;;;;;;;;5389230;26;20019;-56
2024/04/19 04:24:50;;;;;;;3.20;2.30;;;;;;;;;;5392376;26;20109;-56
2024/04/19 04:27:15;;;;;;;4.45;2.38;;;;;;;;;;5373242;26;20000;-57
2024/04/19 04:29:41;;;;;;;2.67;2.00;;;;;;;;;;5396978;26;20020;-57
2024/04/19 04:32:07;;;;;;;3.83;2.50;;;;;;;;;;5346846;26;20008;-59
2024/04/19 04:34:33;;;;;;;4.63;2.60;;;;;;;;;;5372925;26;20015;-55
2024/04/19 04:36:59;;;;;;;2.42;1.98;;;;;;;;;;5375541;26;20004;-59
2024/04/19 04:39:24;;;;;;;5.68;2.70;;;;;;;;;;5373789;26;20009;-56
2024/04/19 04:41:50;;;;;;;5.03;2.78;;;;;;;;;;5376728;26;20074;-60
2024/04/19 04:44:16;;;;;;;4.18;2.40;;;;;;;;;;5375374;26;20000;-60
2024/04/19 04:46:42;;;;;;;3.13;2.50;;;;;;;;;;5373217;26;20016;-56
2024/04/19 04:49:09;;;;;;;3.80;2.53;;;;;;;;;;5382436;26;20019;-57
2024/04/19 04:51:35;;;;;;;9.75;2.65;;;;;;;;;;5344134;26;20008;-56
2024/04/19 04:54:01;;;;;;;5.45;3.15;;;;;;;;;;5403646;26;20000;-58
2024/04/19 04:56:27;;;;;;;5.22;3.20;;;;;;;;;;5410480;26;20007;-54
2024/04/19 04:58:53;;;;;;;5.22;2.97;;;;;;;;;;5411582;26;20011;-56
2024/04/19 05:01:19;;;;;;;4.32;2.75;;;;;;;;;;5399421;26;20213;-53
2024/04/19 05:03:47;;;;;;;5.07;2.78;;;;;;;;;;5441640;26;20007;-51
2024/04/19 05:06:13;;;;;;;5.43;3.90;;;;;;;;;;5425370;26;20089;-53
2024/04/19 05:08:39;;;;;;;4.95;3.20;;;;;;;;;;5407514;26;20003;-57
2024/04/19 05:11:05;;;;;;;6.78;3.80;;;;;;;;;;5409419;26;20018;-54
2024/04/19 05:13:30;;;;;;;7.88;4.43;;;;;;;;;;5384495;26;20012;-54
2024/04/19 05:15:56;;;;;;;6.00;4.40;;;;;;;;;;5372549;26;20015;-56
2024/04/19 05:18:22;;;;;;;7.63;4.65;;;;;;;;;;5373006;26;20023;-55
2024/04/19 05:20:48;;;;;;;7.90;4.32;;;;;;;;;;5374364;26;20004;-57
2024/04/19 05:23:14;;;;;;;8.75;4.35;;;;;;;;;;5350407;26;20003;-57
2024/04/19 05:25:39;;;;;;;6.95;4.63;;;;;;;;;;5410136;26;20432;-50
2024/04/19 05:28:06;;;;;;;7.32;5.15;;;;;;;;;;5377377;26;20015;-55
2024/04/19 05:30:32;;;;;;;6.68;4.63;;;;;;;;;;5372471;26;20004;-56
2024/04/19 05:32:58;;;;;;;7.10;4.85;;;;;;;;;;5373855;26;20008;-53
2024/04/19 05:35:24;;;;;;;8.43;5.20;;;;;;;;;;5392570;26;20011;-52
2024/04/19 05:37:53;;;;;;;8.35;4.72;;;;;;;;;;5374349;26;20015;-57
2024/04/19 05:40:19;;;;;;;8.68;5.00;;;;;;;;;;5372323;26;20004;-58
2024/04/19 05:42:45;;;;;;;10.30;5.95;;;;;;;;;;5372231;26;20004;-56
2024/04/19 05:45:10;;;;;;;10.10;5.32;;;;;;;;;;5374900;26;20011;-58
2024/04/19 05:47:36;;;;;;;9.25;5.20;;;;;;;;;;5374194;26;20483;-56
2024/04/19 05:50:02;;;;;;;7.82;5.47;;;;;;;;;;5390914;26;20008;-56
2024/04/19 05:52:31;;;;;;;10.70;5.88;;;;;;;;;;5401578;26;20012;-56
2024/04/19 05:54:56;;;;;;;10.02;5.93;;;;;;;;;;5374729;26;20004;-55
2024/04/19 05:57:22;;;;;;;9.55;6.03;;;;;;;;;;5372006;26;20001;-58
2024/04/19 05:59:48;;;;;;;10.93;6.32;;;;;;;;;;5360788;26;20000;-55
2024/04/19 06:02:14;;;;;;;13.32;6.85;;;;;;;;;;5407654;26;20022;-55
2024/04/19 06:04:40;;;;;;;12.18;7.13;;;;;;;;;;5399638;26;20012;-56
2024/04/19 06:07:06;;;;;;;15.05;7.63;;;;;;;;;;5372142;26;20097;-55
2024/04/19 06:09:32;;;;;;;16.92;6.95;;;;;;;;;;5371690;26;20352;-55
2024/04/19 06:12:01;;;;;;;13.35;7.47;;;;;;;;;;5373333;26;20036;-53
2024/04/19 06:14:27;;;;;;;11.45;7.30;;;;;;;;;;5371387;26;20119;-57
2024/04/19 06:16:53;;;;;;;11.13;7.07;;;;;;;;;;5371258;26;20479;-58
2024/04/19 06:19:19;;;;;;;14.20;7.50;;;;;;;;;;5370973;26;20015;-56
2024/04/19 06:21:45;;;;;;;12.25;7.43;;;;;;;;;;5373421;26;20597;-58
2024/04/19 06:24:11;;;;;;;18.75;8.65;;;;;;;;;;5371824;26;20015;-52
2024/04/19 06:26:40;;;;;;;13.68;7.75;;;;;;;;;;5347957;26;20004;-56
2024/04/19 06:29:06;;;;;;;12.73;8.18;;;;;;;;;;5372092;26;20011;-55
2024/04/19 06:31:32;;;;;;;12.88;7.57;;;;;;;;;;5371487;26;20004;-55
2024/04/19 06:33:57;;;;;;;15.13;8.05;;;;;;;;;;5373577;26;20496;-54
2024/04/19 06:36:23;;;;;;;19.60;10.18;;;;;;;;;;5373483;26;20527;-56
2024/04/19 06:38:49;;;;;;;17.30;8.20;;;;;;;;;;5372153;26;20028;-54
2024/04/19 06:41:15;;;;;;;15.23;9.27;;;;;;;;;;5375117;26;20032;-59
2024/04/19 06:43:41;;;;;;;18.67;9.43;;;;;;;;;;5373276;26;20015;-58
2024/04/19 06:46:06;;;;;;;15.43;9.30;;;;;;;;;;5370359;26;20020;-60
2024/04/19 06:48:32;;;;;;;17.48;10.30;;;;;;;;;;5373329;26;20070;-60
2024/04/19 06:50:58;;;;;;;20.95;9.65;;;;;;;;;;5373467;26;20468;-57
2024/04/19 06:53:24;;;;;;;17.80;9.68;;;;;;;;;;5370347;26;20027;-56
2024/04/19 06:55:52;;;;;;;19.20;9.77;;;;;;;;;;5320201;26;19996;-55
2024/04/19 06:58:18;;;;;;;16.00;9.35;;;;;;;;;;5374084;26;20524;-57
2024/04/19 07:00:43;;;;;;;19.88;10.77;;;;;;;;;;5406942;26;20064;-60
2024/04/19 07:03:09;;;;;;;19.30;10.80;;;;;;;;;;5408534;26;20003;-59
2024/04/19 07:05:35;;;;;;;22.52;11.73;;;;;;;;;;5408732;26;20003;-57
2024/04/19 07:08:00;;;;;;;21.90;11.48;;;;;;;;;;5409134;26;20072;-58
2024/04/19 07:10:26;;;;;;;23.33;12.70;;;;;;;;;;5408351;26;20076;-58
2024/04/19 07:12:52;;;;;;;24.83;12.15;;;;;;;;;;5408534;26;20010;-59
2024/04/19 07:15:17;;;;;;;26.05;12.95;;;;;;;;;;5405324;26;20014;-57
2024/04/19 07:17:43;;;;;;;23.92;12.43;;;;;;;;;;5377209;26;20375;-59
2024/04/19 07:20:09;;;;;;;26.33;12.02;;;;;;;;;;5406333;26;20003;-56
2024/04/19 07:22:35;;;;;;;22.30;12.23;;;;;;;;;;5406714;26;20489;-57
2024/04/19 07:25:02;;;;;;;30.58;13.00;;;;;;;;;;5406282;26;20048;-57
2024/04/19 07:27:31;;;;;;;26.33;13.13;;;;;;;;;;5382059;26;20008;-56
2024/04/19 07:29:57;;;;;;;26.63;13.18;;;;;;;;;;5372627;26;20016;-54
2024/04/19 07:32:22;;;;;;;24.33;13.55;;;;;;;;;;5372545;26;20020;-59
2024/04/19 07:34:48;;;;;;;27.08;13.85;;;;;;;;;;5372235;26;20036;-59
2024/04/19 07:37:14;;;;;;;25.98;14.52;;;;;;;;;;5342122;26;20014;-57
2024/04/19 07:39:39;;;;;;;27.10;14.70;;;;;;;;;;5408783;26;20000;-56
2024/04/19 07:42:05;;;;;;;26.75;15.02;;;;;;;;;;5372094;26;20018;-57
2024/04/19 07:44:31;;;;;;;32.38;15.27;;;;;;;;;;5371994;26;20004;-56
2024/04/19 07:46:56;;;;;;;27.50;15.02;;;;;;;;;;5399438;26;20032;-55
2024/04/19 07:49:22;;;;;;;25.73;15.70;;;;;;;;;;5370361;26;20005;-53
2024/04/19 07:51:48;;;;;;;25.45;13.70;;;;;;;;;;5371974;26;20484;-51
2024/04/19 07:54:14;;;;;;;25.02;14.35;;;;;;;;;;5403611;26;20004;-53
2024/04/19 07:56:41;;;;;;;26.88;15.25;;;;;;;;;;5409441;26;20007;-59
2024/04/19 07:59:08;;;;;;;27.27;14.85;;;;;;;;;;5380566;26;20018;-54
2024/04/19 08:01:34;;;;;;;23.63;14.82;;;;;;;;;;5384544;26;20508;-55
2024/04/19 08:04:00;;;;;;;23.90;14.13;;;;;;;;;;5376186;26;20062;-59
2024/04/19 08:06:26;;;;;;;25.90;15.80;;;;;;;;;;5376053;26;20008;-56
2024/04/19 08:08:52;;;;;;;23.17;14.57;;;;;;;;;;5374050;26;20480;-53
2024/04/19 08:11:18;;;;;;;22.90;14.48;;;;;;;;;;5399421;26;20088;-57
2024/04/19 08:13:43;;;;;;;25.08;15.80;;;;;;;;;;5409251;26;20013;-59
2024/04/19 08:16:09;;;;;;;29.70;15.02;;;;;;;;;;5379706;26;20007;-56
2024/04/19 08:18:35;;;;;;;25.17;14.85;;;;;;;;;;5409811;26;20084;-56
2024/04/19 08:21:00;;;;;;;24.00;14.68;;;;;;;;;;5404112;26;20001;-56
2024/04/19 08:23:26;;;;;;;23.58;13.30;;;;;;;;;;5394399;26;20004;-59
2024/04/19 08:25:56;;;;;;;25.45;12.30;;;;;;;;;;5409856;26;20013;-55
2024/04/19 08:28:25;;;;;;;21.27;12.88;;;;;;;;;;5403386;26;20081;-55
2024/04/19 08:30:53;;;;;;;19.50;13.85;;;;;;;;;;5373861;26;20080;-59
2024/04/19 08:33:19;;;;;;;26.92;11.68;;;;;;;;;;5373208;26;20006;-57
2024/04/19 08:35:57;;;;;;;16.95;11.02;;;;;;;;;;5375471;26;20070;-55
2024/04/19 08:38:24;;;;;;;19.17;11.77;;;;;;;;;;5375064;26;20004;-60
2024/04/19 08:41:02;;;;;;;19.55;11.50;;;;;;;;;;5382041;26;20124;-57
2024/04/19 08:43:35;;;;;;;17.92;11.90;;;;;;;;;;5379811;26;20007;-55
2024/04/19 08:46:01;;;;;;;21.08;12.70;;;;;;;;;;5378890;26;20000;-54
2024/04/19 08:48:27;;;;;;;19.70;13.02;;;;;;;;;;5395207;26;20018;-55
2024/04/19 08:51:00;;;;;;;21.92;12.40;;;;;;;;;;5397762;26;20019;-57
2024/04/19 08:53:26;;;;;;;19.65;13.13;;;;;;;;;;5390898;26;20040;-56
2024/04/19 08:55:53;;;;;;;22.83;12.98;;;;;;;;;;5395602;26;20015;-54
2024/04/19 08:58:21;;;;;;;16.02;9.85;;;;;;;;;;5392586;26;20008;-55
2024/04/19 09:00:46;;;;;;;14.75;8.63;;;;;;;;;;5388264;26;20008;-52
2024/04/19 09:03:12;;;;;;;6.55;4.00;;;;;;;;;;5398534;26;20008;-52
2024/04/19 09:05:39;;;;;;;4.32;3.17;;;;;;;;;;5378945;26;20018;-53
2024/04/19 09:08:05;;;;;;;6.35;3.33;;;;;;;;;;5408821;26;20482;-57
2024/04/19 09:10:31;;;;;;;5.72;2.97;;;;;;;;;;5408524;26;20293;-52
2024/04/19 09:12:57;;;;;;;4.45;3.22;;;;;;;;;;5378191;26;20027;-55
2024/04/19 09:15:27;;;;;;;4.55;2.55;;;;;;;;;;5382921;26;20036;-53
2024/04/19 09:17:53;;;;;;;4.47;2.65;;;;;;;;;;5380862;26;20004;-50
2024/04/19 09:20:23;;;;;;;4.90;2.75;;;;;;;;;;5363865;26;20030;-55
2024/04/19 09:22:49;;;;;;;2.90;1.90;;;;;;;;;;5384182;26;20015;-57
2024/04/19 09:25:20;;;;;;;3.85;1.50;;;;;;;;;;5375140;26;20023;-53
2024/04/19 09:27:52;;;;;;;4.00;1.80;;;;;;;;;;5372085;26;20000;-54
2024/04/19 09:30:18;;;;;;;5.07;1.27;;;;;;;;;;5342550;26;20008;-55
2024/04/19 09:32:46;;;;;;;3.67;1.25;;;;;;;;;;5374681;26;20008;-51
2024/04/19 09:35:16;;;;;;;1.80;1.08;;;;;;;;;;5372080;26;20032;-53
2024/04/19 09:37:43;;;;;;;2.20;1.10;;;;;;;;;;5374031;26;20011;-54
2024/04/19 09:40:11;;;;;;;2.83;1.42;;;;;;;;;;5372006;26;20482;-57
2024/04/19 09:42:38;;;;;;;2.65;1.10;;;;;;;;;;5374624;26;20012;-56
2024/04/19 09:45:07;;;;;;;1.65;1.10;;;;;;;;;;5373761;26;20004;-51
2024/04/19 09:47:34;;;;;;;5.03;1.30;;;;;;;;;;5380068;26;20005;-57
2024/04/19 09:50:01;;;;;;;1.75;0.90;;;;;;;;;;5383124;26;19999;-53
2024/04/19 09:52:29;;;;;;;3.03;1.10;;;;;;;;;;5386219;26;20004;-52
2024/04/19 09:55:19;;;;;;;6.10;1.67;;;;;;;;;;5392900;26;20510;-52
2024/04/19 09:57:46;;;;;;;1.83;1.20;;;;;;;;;;5372019;26;20004;-55
2024/04/19 10:00:14;;;;;;;2.50;0.98;;;;;;;;;;5381917;26;20007;-53
2024/04/19 10:02:42;;;;;;;1.23;0.80;;;;;;;;;;5372211;26;20040;-57
2024/04/19 10:05:09;;;;;;;3.40;0.90;;;;;;;;;;5391444;26;20281;-54
2024/04/19 10:07:36;;;;;;;1.40;0.88;;;;;;;;;;5389388;26;20027;-57
2024/04/19 10:10:03;;;;;;;1.85;1.00;;;;;;;;;;5367193;26;20015;-56
2024/04/19 10:12:33;;;;;;;4.72;0.82;;;;;;;;;;5373937;26;20005;-53
2024/04/19 10:14:59;;;;;;;0.70;0.60;;;;;;;;;;5374566;26;20011;-55
2024/04/19 10:17:25;;;;;;;2.17;0.50;;;;;;;;;;5380969;26;20004;-52
2024/04/19 10:19:51;;;;;;;1.52;0.70;;;;;;;;;;5391356;26;19999;-51
2024/04/19 10:22:22;;;;;;;3.00;0.80;;;;;;;;;;5392651;26;20008;-57
2024/04/19 10:25:01;;;;;;;1.85;0.70;;;;;;;;;;5383819;26;20364;-54
2024/04/19 10:27:29;;;;;;;4.10;0.77;;;;;;;;;;5385992;26;20010;-57
2024/04/19 10:30:06;;;;;;;2.88;0.68;;;;;;;;;;5372805;26;20016;-54
2024/04/19 10:32:33;;;;;;;2.35;0.50;;;;;;;;;;5372975;26;20028;-59
2024/04/19 10:34:58;;;;;;;1.95;0.63;;;;;;;;;;5386315;26;20034;-52
2024/04/19 10:37:24;;;;;;;4.13;0.40;;;;;;;;;;5389629;26;20089;-53
2024/04/19 10:39:51;;;;;;;0.93;0.40;;;;;;;;;;5361117;26;20019;-53
2024/04/19 10:42:20;;;;;;;1.30;0.43;;;;;;;;;;5357223;26;20363;-56
2024/04/19 10:44:48;;;;;;;0.57;0.45;;;;;;;;;;5359911;26;20589;-52
2024/04/19 10:47:15;;;;;;;3.85;0.60;;;;;;;;;;5360993;26;20023;-52
2024/04/19 10:49:40;;;;;;;0.55;0.50;;;;;;;;;;5360846;26;20506;-54
2024/04/19 10:52:06;;;;;;;0.93;0.50;;;;;;;;;;5362239;26;20056;-53
2024/04/19 10:54:32;;;;;;;3.38;0.70;;;;;;;;;;5390829;26;20008;-56
2024/04/19 10:56:58;;;;;;;2.85;0.50;;;;;;;;;;5385366;26;20000;-54
2024/04/19 10:59:24;;;;;;;0.60;0.40;;;;;;;;;;5373219;26;20016;-56
2024/04/19 11:01:50;;;;;;;0.82;0.50;;;;;;;;;;5356289;26;20076;-52
2024/04/19 11:04:16;;;;;;;0.90;0.50;;;;;;;;;;5402220;26;20011;-54
2024/04/19 11:06:42;;;;;;;0.90;0.30;;;;;;;;;;5375614;26;20537;-53
2024/04/19 11:09:11;;;;;;;3.47;0.60;;;;;;;;;;5375551;26;20015;-53
2024/04/19 11:11:37;;;;;;;0.98;0.40;;;;;;;;;;5388322;26;20080;-55
2024/04/19 11:14:07;;;;;;;3.22;0.50;;;;;;;;;;5362138;26;20023;-57
2024/04/19 11:16:33;;;;;;;6.93;1.63;;;;;;;;;;5388570;26;20471;-55
2024/04/19 11:18:59;;;;;;;0.40;0.40;;;;;;;;;;5386221;26;20005;-55
2024/04/19 11:21:25;;;;;;;2.78;0.80;;;;;;;;;;5382120;26;20004;-57
2024/04/19 11:23:51;;;;;;;3.17;0.40;;;;;;;;;;5394760;26;20000;-58
2024/04/19 11:26:17;;;;;;;3.20;0.50;;;;;;;;;;5399430;26;20399;-57
2024/04/19 11:28:50;;;;;;;3.58;0.40;;;;;;;;;;5382506;26;20008;-56
2024/04/19 11:31:16;;;;;;;0.40;0.38;;;;;;;;;;5388789;26;20405;-54
2024/04/19 11:33:42;;;;;;;0.20;0.20;;;;;;;;;;5377983;26;20048;-59
2024/04/19 11:36:08;;;;;;;4.47;1.00;;;;;;;;;;5392538;26;20016;-56
2024/04/19 11:38:35;;;;;;;0.43;0.35;;;;;;;;;;5401169;26;20187;-56
2024/04/19 11:41:01;;;;;;;2.03;0.40;;;;;;;;;;5411725;26;20019;-57
2024/04/19 11:43:27;;;;;;;1.42;0.40;;;;;;;;;;5409865;26;20015;-57
2024/04/19 11:45:53;;;;;;;1.98;0.47;;;;;;;;;;5397635;26;20008;-55
2024/04/19 11:48:22;;;;;;;0.40;0.40;;;;;;;;;;5403431;26;20392;-56
2024/04/19 11:50:48;;;;;;;2.08;0.22;;;;;;;;;;5375367;26;20014;-53
2024/04/19 11:53:14;;;;;;;1.73;0.50;;;;;;;;;;5387971;26;20000;-53
2024/04/19 11:55:39;;;;;;;1.63;0.55;;;;;;;;;;5389678;26;20081;-54
2024/04/19 11:58:05;;;;;;;1.75;0.60;;;;;;;;;;5376554;26;20569;-56
2024/04/19 12:00:30;;;;;;;1.08;0.55;;;;;;;;;;5374489;26;20004;-56
2024/04/19 12:02:56;;;;;;;3.35;0.93;;;;;;;;;;5375840;26;20679;-55
2024/04/19 12:05:22;;;;;;;6.15;0.80;;;;;;;;;;5336283;26;20073;-55
2024/04/19 12:07:48;;;;;;;3.40;0.70;;;;;;;;;;5390516;26;20016;-56
2024/04/19 12:10:13;;;;;;;7.85;1.00;;;;;;;;;;5397405;26;20358;-56
2024/04/19 12:12:39;;;;;;;1.75;0.65;;;;;;;;;;5414444;26;20015;-55
2024/04/19 12:15:05;;;;;;;0.80;0.70;;;;;;;;;;5380714;26;20364;-57
2024/04/19 12:17:31;;;;;;;2.25;0.60;;;;;;;;;;5329627;26;20005;-51
2024/04/19 12:19:57;;;;;;;1.45;0.63;;;;;;;;;;5384144;26;20081;-55
2024/04/19 12:22:23;;;;;;;2.65;0.60;;;;;;;;;;5364376;26;20008;-52
2024/04/19 12:24:48;;;;;;;1.80;0.73;;;;;;;;;;5359667;26;20003;-50
2024/04/19 12:27:14;;;;;;;1.13;0.70;;;;;;;;;;5398094;26;20007;-57
2024/04/19 12:29:43;;;;;;;2.92;0.90;;;;;;;;;;5391405;26;20004;-56
2024/04/19 12:32:09;;;;;;;1.70;0.63;;;;;;;;;;5391140;26;20436;-51
2024/04/19 12:34:35;;;;;;;2.15;0.60;;;;;;;;;;5392077;26;20023;-54
2024/04/19 12:37:01;;;;;;;3.28;0.80;;;;;;;;;;5374079;26;20364;-54
2024/04/19 12:39:26;;;;;;;1.65;0.57;;;;;;;;;;5378138;26;20007;-54
2024/04/19 12:41:53;;;;;;;1.85;0.63;;;;;;;;;;5395909;26;20031;-53
2024/04/19 12:44:18;;;;;;;1.05;0.50;;;;;;;;;;5388700;26;20089;-55
2024/04/19 12:46:44;;;;;;;1.38;0.70;;;;;;;;;;5391485;26;20016;-56
2024/04/19 12:49:13;;;;;;;0.90;0.70;;;;;;;;;;5387083;26;20051;-55
2024/04/19 12:51:38;;;;;;;0.85;0.70;;;;;;;;;;5358801;26;20016;-53
2024/04/19 12:54:04;;;;;;;1.83;0.70;;;;;;;;;;5389619;26;20012;-55
2024/04/19 12:56:30;;;;;;;2.63;0.70;;;;;;;;;;5374471;26;20000;-54
2024/04/19 12:58:55;;;;;;;0.70;0.50;;;;;;;;;;5377345;26;20004;-54
2024/04/19 13:01:21;;;;;;;0.50;0.50;;;;;;;;;;5372741;26;20008;-57
2024/04/19 13:03:47;;;;;;;1.65;0.70;;;;;;;;;;5343980;26;20004;-53
2024/04/19 13:06:12;;;;;;;1.38;0.60;;;;;;;;;;5387477;26;20008;-54
2024/04/19 13:08:38;;;;;;;0.50;0.50;;;;;;;;;;5389602;26;20064;-52
2024/04/19 13:11:04;;;;;;;2.20;0.77;;;;;;;;;;5375084;26;20022;-56
2024/04/19 13:13:46;;;;;;;1.88;0.60;;;;;;;;;;5374684;26;20008;-58
2024/04/19 13:16:11;;;;;;;3.90;0.70;;;;;;;;;;5372562;26;20119;-54
2024/04/19 13:18:37;;;;;;;1.02;0.60;;;;;;;;;;5374733;26;20016;-53
2024/04/19 13:21:03;;;;;;;8.70;0.80;;;;;;;;;;5374408;26;20008;-53
2024/04/19 13:23:28;;;;;;;2.38;0.70;;;;;;;;;;5374089;26;20016;-54
2024/04/19 13:25:55;;;;;;;1.02;0.80;;;;;;;;;;5384435;26;20012;-57
2024/04/19 13:28:20;;;;;;;2.05;0.77;;;;;;;;;;5409296;26;20012;-55
2024/04/19 13:30:46;;;;;;;1.33;0.50;;;;;;;;;;5372115;26;20024;-55
2024/04/19 13:33:12;;;;;;;0.82;0.60;;;;;;;;;;5372369;26;20015;-53
2024/04/19 13:35:37;;;;;;;1.33;0.65;;;;;;;;;;5374502;26;20020;-54
2024/04/19 13:38:03;;;;;;;1.33;0.40;;;;;;;;;;5372547;26;20010;-55
2024/04/19 13:40:29;;;;;;;1.08;0.60;;;;;;;;;;5372740;26;20019;-56
2024/04/19 13:42:55;;;;;;;4.53;0.68;;;;;;;;;;5374020;26;20001;-51
2024/04/19 13:45:20;;;;;;;1.38;0.38;;;;;;;;;;5374023;26;20094;-52
2024/04/19 13:47:47;;;;;;;3.15;0.57;;;;;;;;;;5372241;26;20009;-53
2024/04/19 13:50:13;;;;;;;0.35;0.32;;;;;;;;;;5387258;26;20012;-53
2024/04/19 13:52:39;;;;;;;0.93;0.50;;;;;;;;;;5401569;26;20019;-52
2024/04/19 13:55:06;;;;;;;2.40;0.50;;;;;;;;;;5372081;26;20349;-54
2024/04/19 13:57:32;;;;;;;4.95;0.50;;;;;;;;;;5374707;26;20378;-55
2024/04/19 13:59:57;;;;;;;2.38;0.40;;;;;;;;;;5373068;26;20036;-55
2024/04/19 14:02:23;;;;;;;0.47;0.40;;;;;;;;;;5374160;26;20008;-53
2024/04/19 14:04:49;;;;;;;0.30;0.30;;;;;;;;;;5372254;26;20008;-50
2024/04/19 14:07:15;;;;;;;1.55;0.60;;;;;;;;;;5386520;26;20019;-56
2024/04/19 14:09:44;;;;;;;1.98;0.43;;;;;;;;;;5407824;26;20059;-53
2024/04/19 14:12:10;;;;;;;3.20;0.50;;;;;;;;;;5373291;26;20008;-53
2024/04/19 14:14:36;;;;;;;2.25;0.65;;;;;;;;;;5374031;26;20028;-53
2024/04/19 14:17:02;;;;;;;2.35;0.45;;;;;;;;;;5373323;26;20004;-55
2024/04/19 14:19:28;;;;;;;10.98;0.85;;;;;;;;;;5342697;26;20004;-55
2024/04/19 14:21:53;;;;;;;2.10;0.60;;;;;;;;;;5371653;26;20014;-56
2024/04/19 14:24:19;;;;;;;0.95;0.57;;;;;;;;;;5371562;26;20015;-56
2024/04/19 14:26:45;;;;;;;2.40;0.63;;;;;;;;;;5386391;26;20019;-52
2024/04/19 14:29:11;;;;;;;1.13;0.40;;;;;;;;;;5407423;26;20007;-55
2024/04/19 14:31:37;;;;;;;2.38;1.10;;;;;;;;;;5392569;26;20411;-54
2024/04/19 14:34:02;;;;;;;0.52;0.40;;;;;;;;;;5372147;26;20020;-58
2024/04/19 14:36:28;;;;;;;0.80;0.50;;;;;;;;;;5374395;26;20014;-54
2024/04/19 14:38:54;;;;;;;0.45;0.40;;;;;;;;;;5373765;26;20455;-55